Time;durP1;ratioP1;P1;durP2;ratioP2;P2;SDS_P1;SDS_P2;PMS_P1;PMS_P2;Temp;Humidity;BMP_temperature;BMP_pressure;BME280_temperature;BME280_humidity;BME280_pressure;Samples;Min_cycle;Max_cycle;Signal;HPM_P1;HPM_P2
2021/01/29 00:01:18;;;;;;;9.50;4.43;;;20.50;76.60;;;;;;5023568;28;20057;-66
2021/01/29 00:03:43;;;;;;;9.85;3.75;;;20.50;76.60;;;;;;5022281;28;20045;-66
2021/01/29 00:06:09;;;;;;;8.57;4.35;;;20.50;76.80;;;;;;5023066;28;20057;-66
2021/01/29 00:08:35;;;;;;;6.75;3.78;;;20.50;76.70;;;;;;5024416;28;20025;-65
2021/01/29 00:11:02;;;;;;;8.60;4.35;;;20.50;76.80;;;;;;5021791;28;20087;-65
2021/01/29 00:13:28;;;;;;;6.30;3.95;;;20.60;76.80;;;;;;5022660;28;20025;-65
2021/01/29 00:15:54;;;;;;;6.97;4.53;;;20.50;76.70;;;;;;5021191;28;20029;-65
2021/01/29 00:18:20;;;;;;;6.10;3.97;;;20.50;76.70;;;;;;5018068;28;20065;-65
2021/01/29 00:20:46;;;;;;;6.35;3.97;;;20.50;76.60;;;;;;5028680;28;20390;-65
2021/01/29 00:23:12;;;;;;;6.90;3.83;;;20.50;76.50;;;;;;5022694;28;20029;-66
2021/01/29 00:25:39;;;;;;;8.32;4.28;;;20.50;76.60;;;;;;5028808;28;20033;-65
2021/01/29 00:28:08;;;;;;;6.07;4.20;;;20.50;76.70;;;;;;5024819;28;20052;-65
2021/01/29 00:30:35;;;;;;;7.72;3.80;;;20.50;76.60;;;;;;5019331;28;20026;-66
2021/01/29 00:33:03;;;;;;;6.60;3.88;;;20.50;76.60;;;;;;5018408;28;20034;-65
2021/01/29 00:35:31;;;;;;;7.68;4.32;;;20.50;76.60;;;;;;5028873;28;20377;-65
2021/01/29 00:37:59;;;;;;;6.97;4.28;;;20.60;76.60;;;;;;5022089;28;20034;-65
2021/01/29 00:40:25;;;;;;;7.30;4.40;;;20.50;76.60;;;;;;5020762;28;20030;-65
2021/01/29 00:42:51;;;;;;;7.72;4.30;;;20.50;76.70;;;;;;5020793;28;20064;-66
2021/01/29 00:45:20;;;;;;;8.93;3.97;;;20.50;76.70;;;;;;5019295;28;20057;-65
2021/01/29 00:47:46;;;;;;;5.90;4.18;;;20.50;76.70;;;;;;5023180;28;20053;-65
2021/01/29 00:50:12;;;;;;;6.32;3.92;;;20.50;76.80;;;;;;5021161;28;20115;-65
2021/01/29 00:52:38;;;;;;;6.72;3.50;;;20.50;76.70;;;;;;5021943;28;20042;-65
2021/01/29 00:55:05;;;;;;;7.40;4.15;;;20.50;76.60;;;;;;5020421;28;20061;-65
2021/01/29 00:57:31;;;;;;;7.10;3.63;;;20.50;76.70;;;;;;5027955;28;20036;-66
2021/01/29 00:59:57;;;;;;;5.25;3.80;;;20.50;76.80;;;;;;5018314;28;20021;-66
2021/01/29 01:02:22;;;;;;;4.90;3.45;;;20.50;76.70;;;;;;5026925;28;20456;-65
2021/01/29 01:04:48;;;;;;;5.90;3.90;;;20.50;76.80;;;;;;5020714;28;20029;-65
2021/01/29 01:07:14;;;;;;;6.10;3.90;;;20.50;76.70;;;;;;5035141;28;20025;-65
2021/01/29 01:09:39;;;;;;;5.20;3.70;;;20.60;76.70;;;;;;5014871;28;20026;-65
2021/01/29 01:12:06;;;;;;;6.53;4.10;;;20.50;76.80;;;;;;5027460;28;20129;-65
2021/01/29 01:14:32;;;;;;;4.40;3.60;;;20.50;76.60;;;;;;5021533;28;20033;-65
2021/01/29 01:16:57;;;;;;;6.60;3.70;;;20.50;76.80;;;;;;5033669;28;20034;-65
2021/01/29 01:19:23;;;;;;;6.30;3.75;;;20.50;76.80;;;;;;5023878;28;20025;-66
2021/01/29 01:21:48;;;;;;;4.63;3.53;;;20.50;76.70;;;;;;5017802;28;20072;-65
2021/01/29 01:24:14;;;;;;;4.90;3.45;;;20.50;76.80;;;;;;5030863;28;20390;-65
2021/01/29 01:26:40;;;;;;;5.00;3.83;;;20.50;76.80;;;;;;5016616;28;20030;-66
2021/01/29 01:29:05;;;;;;;6.25;3.63;;;20.50;76.90;;;;;;5024401;28;20029;-65
2021/01/29 01:31:31;;;;;;;5.63;3.90;;;20.50;76.90;;;;;;5027974;28;20490;-65
2021/01/29 01:33:56;;;;;;;5.63;3.60;;;20.50;76.80;;;;;;5024372;28;20030;-65
2021/01/29 01:36:22;;;;;;;5.82;3.55;;;20.50;76.80;;;;;;5022155;28;20025;-65
2021/01/29 01:38:48;;;;;;;5.50;3.53;;;20.50;76.70;;;;;;5027256;28;20045;-66
2021/01/29 01:41:13;;;;;;;7.55;4.00;;;20.50;76.80;;;;;;5030593;28;20029;-66
2021/01/29 01:43:39;;;;;;;7.25;4.00;;;20.50;76.80;;;;;;5026378;28;20112;-65
2021/01/29 01:46:12;;;;;;;5.03;3.80;;;20.50;76.80;;;;;;5024026;28;20033;-65
2021/01/29 01:48:46;;;;;;;6.35;3.55;;;20.50;76.70;;;;;;5025646;28;20104;-65
2021/01/29 01:51:27;;;;;;;5.32;3.67;;;20.50;76.80;;;;;;5025289;28;20033;-66
2021/01/29 01:53:56;;;;;;;4.57;3.83;;;20.50;76.90;;;;;;5025999;28;20029;-65
2021/01/29 01:56:46;;;;;;;6.85;3.72;;;20.50;76.80;;;;;;5022611;28;20449;-65
2021/01/29 01:59:21;;;;;;;5.70;3.65;;;20.50;76.80;;;;;;5026865;28;20033;-65
2021/01/29 02:01:50;;;;;;;5.03;3.80;;;20.50;76.90;;;;;;5025280;28;20045;-65
2021/01/29 02:04:16;;;;;;;5.63;3.65;;;20.50;76.80;;;;;;5023126;28;20022;-65
2021/01/29 02:06:56;;;;;;;5.15;3.80;;;20.50;76.70;;;;;;5028428;28;20030;-65
2021/01/29 02:09:24;;;;;;;4.50;3.38;;;20.50;76.90;;;;;;5026640;28;20124;-65
2021/01/29 02:11:51;;;;;;;4.65;3.83;;;20.50;77.00;;;;;;5024665;28;20045;-66
2021/01/29 02:14:16;;;;;;;5.40;3.75;;;20.50;76.90;;;;;;5026652;28;20030;-63
2021/01/29 02:16:59;;;;;;;6.45;3.65;;;20.50;76.90;;;;;;5024575;28;20033;-62
2021/01/29 02:19:47;;;;;;;;;;;20.50;77.00;;;;;;5028671;28;20030;-63
2021/01/29 02:22:35;;;;;;;4.50;3.25;;;20.50;76.80;;;;;;5026520;28;19959;-65
2021/01/29 02:25:09;;;;;;;5.07;3.42;;;20.50;76.80;;;;;;5031147;28;20477;-65
2021/01/29 02:27:59;;;;;;;5.88;3.63;;;20.50;76.80;;;;;;5022898;28;20033;-65
2021/01/29 02:31:06;;;;;;;5.22;3.97;;;20.50;76.80;;;;;;5011119;28;20398;-65
2021/01/29 02:34:05;;;;;;;6.05;3.80;;;20.50;76.80;;;;;;5023781;28;20029;-65
2021/01/29 02:36:59;;;;;;;6.07;3.20;;;20.50;76.90;;;;;;5026985;28;20029;-65
2021/01/29 02:39:52;;;;;;;5.82;3.25;;;20.50;76.90;;;;;;5009073;28;20038;-65
2021/01/29 02:42:31;;;;;;;5.22;3.65;;;20.50;77.50;;;;;;5020951;28;20477;-65
2021/01/29 02:45:09;;;;;;;3.97;3.00;;;20.50;76.90;;;;;;5025845;28;20072;-65
2021/01/29 02:47:57;;;;;;;6.85;3.40;;;20.50;76.90;;;;;;5026346;28;20030;-65
2021/01/29 02:50:47;;;;;;;4.85;3.67;;;20.40;76.90;;;;;;5031193;28;20030;-65
2021/01/29 02:53:37;;;;;;;4.35;3.30;;;20.50;77.10;;;;;;5028578;28;20033;-66
2021/01/29 02:56:16;;;;;;;4.63;3.25;;;20.50;77.10;;;;;;5016567;28;20390;-65
2021/01/29 02:58:50;;;;;;;6.32;3.78;;;20.50;77.10;;;;;;5000061;28;20037;-65
2021/01/29 03:01:34;;;;;;;5.03;3.30;;;20.50;77.00;;;;;;5025667;28;20140;-65
2021/01/29 03:04:02;;;;;;;5.55;3.67;;;20.50;77.00;;;;;;5022840;28;20034;-65
2021/01/29 03:07:08;;;;;;;4.78;3.42;;;20.50;76.90;;;;;;5028301;28;20038;-65
2021/01/29 03:09:58;;;;;;;5.45;3.50;;;20.50;76.90;;;;;;5018397;28;20045;-63
2021/01/29 03:12:33;;;;;;;3.80;3.00;;;20.40;76.90;;;;;;5007628;28;20083;-64
2021/01/29 03:15:12;;;;;;;5.97;3.53;;;20.50;77.00;;;;;;5022096;28;20121;-63
2021/01/29 03:17:50;;;;;;;3.70;3.13;;;20.40;77.00;;;;;;5004520;28;20028;-63
2021/01/29 03:20:36;;;;;;;4.30;3.15;;;20.40;77.00;;;;;;5028468;28;20065;-63
2021/01/29 03:23:26;;;;;;;4.00;3.15;;;20.40;77.00;;;;;;5025420;28;20081;-63
2021/01/29 03:25:56;;;;;;;4.32;3.03;;;20.50;77.00;;;;;;5021473;28;20432;-64
2021/01/29 03:28:26;;;;;;;4.13;2.88;;;20.50;77.00;;;;;;5025409;28;20077;-64
2021/01/29 03:30:55;;;;;;;5.53;3.45;;;20.50;76.90;;;;;;5022065;28;20033;-63
2021/01/29 03:33:25;;;;;;;5.07;2.97;;;20.50;77.00;;;;;;5028802;28;20500;-63
2021/01/29 03:36:15;;;;;;;3.65;2.80;;;20.50;77.10;;;;;;5025542;28;20036;-63
2021/01/29 03:38:49;;;;;;;4.60;3.15;;;20.40;77.00;;;;;;5010723;28;20026;-63
2021/01/29 03:41:23;;;;;;;4.30;3.08;;;20.40;77.10;;;;;;5022226;28;20030;-63
2021/01/29 03:44:00;;;;;;;5.13;3.45;;;20.40;77.10;;;;;;5024209;28;20029;-63
2021/01/29 03:46:36;;;;;;;4.97;3.10;;;20.40;77.70;;;;;;5024635;28;20079;-64
2021/01/29 03:49:13;;;;;;;4.78;2.95;;;20.40;76.90;;;;;;5022875;28;20020;-63
2021/01/29 03:51:45;;;;;;;6.88;3.13;;;20.40;77.00;;;;;;5021205;28;20038;-64
2021/01/29 03:54:20;;;;;;;4.57;3.28;;;20.40;77.00;;;;;;5027453;28;20025;-63
2021/01/29 03:56:56;;;;;;;4.63;2.97;;;20.40;77.10;;;;;;5016994;28;20038;-63
2021/01/29 03:59:46;;;;;;;4.35;3.15;;;20.40;77.10;;;;;;5021310;28;20121;-63
2021/01/29 04:02:26;;;;;;;5.40;3.38;;;20.40;77.00;;;;;;5024798;28;20398;-64
2021/01/29 04:05:04;;;;;;;4.43;2.83;;;20.40;77.00;;;;;;5024311;28;20029;-64
2021/01/29 04:07:37;;;;;;;5.05;3.15;;;20.40;77.00;;;;;;5020701;28;20438;-63
2021/01/29 04:10:09;;;;;;;4.43;3.10;;;20.40;77.10;;;;;;5018746;28;20028;-63
2021/01/29 04:12:36;;;;;;;;;;;20.40;77.10;;;;;;5000834;28;20048;-63
2021/01/29 04:15:12;;;;;;;5.18;3.28;;;20.40;77.10;;;;;;5025154;28;19909;-63
2021/01/29 04:17:46;;;;;;;4.30;2.53;;;20.40;77.10;;;;;;5013125;28;20382;-63
2021/01/29 04:20:40;;;;;;;4.00;3.08;;;20.40;77.10;;;;;;5018513;28;20026;-63
2021/01/29 04:23:11;;;;;;;4.30;3.10;;;20.40;77.10;;;;;;5020094;28;20044;-63
2021/01/29 04:25:42;;;;;;;4.40;3.30;;;20.40;77.30;;;;;;5018940;28;20025;-64
2021/01/29 04:28:13;;;;;;;3.77;2.87;;;20.40;77.30;;;;;;5021404;28;20058;-64
2021/01/29 04:30:43;;;;;;;4.30;3.05;;;20.40;77.80;;;;;;5022628;28;20264;-64
2021/01/29 04:33:14;;;;;;;4.25;2.97;;;20.30;77.10;;;;;;5018318;28;20034;-64
2021/01/29 04:35:41;;;;;;;3.40;2.88;;;20.40;77.20;;;;;;5025628;28;20053;-65
2021/01/29 04:38:40;;;;;;;4.70;2.90;;;20.40;77.20;;;;;;5023057;28;20502;-64
2021/01/29 04:41:32;;;;;;;4.35;3.10;;;20.40;77.30;;;;;;4978982;28;20491;-65
2021/01/29 04:44:52;;;;;;;5.10;3.35;;;20.30;77.20;;;;;;5017180;28;20473;-65
2021/01/29 04:47:30;;;;;;;4.50;2.72;;;20.40;77.30;;;;;;4920974;29;20036;-65
2021/01/29 04:50:15;;;;;;;3.40;2.85;;;20.40;77.30;;;;;;5011270;28;20046;-65
2021/01/29 04:53:11;;;;;;;5.30;2.70;;;20.30;77.10;;;;;;5029941;28;20094;-65
2021/01/29 04:55:48;;;;;;;3.70;2.67;;;20.40;77.10;;;;;;5016882;28;20536;-64
2021/01/29 04:58:43;;;;;;;4.00;2.97;;;20.40;77.20;;;;;;5023350;28;20026;-65
2021/01/29 05:01:42;;;;;;;3.67;2.85;;;20.30;77.10;;;;;;5007430;28;20049;-65
2021/01/29 05:04:42;;;;;;;4.15;3.25;;;20.40;77.20;;;;;;5025481;28;20446;-65
2021/01/29 05:07:27;;;;;;;4.10;2.58;;;20.40;77.20;;;;;;5025434;28;20048;-65
2021/01/29 05:10:30;;;;;;;4.00;2.90;;;20.40;77.10;;;;;;5014294;28;20156;-65
2021/01/29 05:13:33;;;;;;;3.45;2.47;;;20.40;77.10;;;;;;5020035;28;20075;-66
2021/01/29 05:16:04;;;;;;;4.32;2.70;;;20.40;77.00;;;;;;5019928;28;20038;-65
2021/01/29 05:19:01;;;;;;;3.10;2.55;;;20.50;76.90;;;;;;5021352;28;20105;-66
2021/01/29 05:21:48;;;;;;;3.42;2.60;;;20.50;77.10;;;;;;5009118;28;20034;-64
2021/01/29 05:24:23;;;;;;;4.40;2.95;;;20.50;76.90;;;;;;5023752;28;20423;-65
2021/01/29 05:26:55;;;;;;;4.75;2.70;;;20.50;76.90;;;;;;5018964;28;20028;-65
2021/01/29 05:29:37;;;;;;;4.22;2.63;;;20.50;76.80;;;;;;5016015;28;20037;-64
2021/01/29 05:32:32;;;;;;;5.30;3.17;;;20.50;77.00;;;;;;5026900;28;20034;-65
2021/01/29 05:35:33;;;;;;;2.90;2.30;;;20.50;76.80;;;;;;5021152;28;20480;-64
2021/01/29 05:38:26;;;;;;;4.13;2.80;;;20.60;77.00;;;;;;5013345;28;20034;-64
2021/01/29 05:41:09;;;;;;;3.90;2.67;;;20.60;76.80;;;;;;5020905;28;20037;-65
2021/01/29 05:44:09;;;;;;;4.03;2.75;;;20.60;76.60;;;;;;5021111;28;20114;-65
2021/01/29 05:46:50;;;;;;;3.33;2.30;;;20.60;76.60;;;;;;4927520;28;20392;-64
2021/01/29 05:49:24;;;;;;;3.72;2.50;;;20.60;76.60;;;;;;5016820;28;20428;-65
2021/01/29 05:52:03;;;;;;;4.90;2.50;;;20.60;76.60;;;;;;5027007;28;20381;-64
2021/01/29 05:54:37;;;;;;;3.10;2.38;;;20.70;76.60;;;;;;5025631;28;20475;-64
2021/01/29 05:57:12;;;;;;;4.07;2.72;;;20.70;76.60;;;;;;5028531;28;20025;-64
2021/01/29 05:59:46;;;;;;;4.15;2.42;;;20.60;76.50;;;;;;5024319;28;20028;-64
2021/01/29 06:02:24;;;;;;;3.58;2.65;;;20.70;76.30;;;;;;5032121;28;20052;-64
2021/01/29 06:05:22;;;;;;;3.72;2.60;;;20.70;76.00;;;;;;5017221;28;20034;-64
2021/01/29 06:08:24;;;;;;;3.00;2.17;;;20.70;75.90;;;;;;5005907;28;20029;-65
2021/01/29 06:11:27;;;;;;;4.70;3.00;;;20.70;76.10;;;;;;5040794;28;20120;-65
2021/01/29 06:14:22;;;;;;;4.90;3.65;;;20.70;75.90;;;;;;5027376;28;20034;-65
2021/01/29 06:17:09;;;;;;;5.97;3.40;;;20.70;76.30;;;;;;5022919;28;20049;-66
2021/01/29 06:19:55;;;;;;;6.35;4.20;;;20.60;76.30;;;;;;5003737;28;20021;-65
2021/01/29 06:22:52;;;;;;;6.10;3.78;;;20.60;76.40;;;;;;5016656;28;20120;-65
2021/01/29 06:25:34;;;;;;;6.63;4.85;;;20.60;76.30;;;;;;5022638;28;20422;-65
2021/01/29 06:28:20;;;;;;;8.63;5.30;;;20.60;76.20;;;;;;5033127;28;20075;-66
2021/01/29 06:31:03;;;;;;;8.20;5.32;;;20.60;76.20;;;;;;5024023;28;20096;-66
2021/01/29 06:33:31;;;;;;;8.38;5.78;;;20.60;76.20;;;;;;5019140;28;20060;-66
2021/01/29 06:36:23;;;;;;;7.47;5.78;;;20.60;76.00;;;;;;5013913;28;20026;-65
2021/01/29 06:39:15;;;;;;;9.43;6.47;;;20.60;77.00;;;;;;5025561;28;20128;-65
2021/01/29 06:41:49;;;;;;;10.80;6.47;;;20.60;76.80;;;;;;5025358;28;20464;-65
2021/01/29 06:44:30;;;;;;;9.88;6.55;;;20.60;76.30;;;;;;5027014;28;20030;-66
2021/01/29 06:47:25;;;;;;;11.75;6.70;;;20.60;76.30;;;;;;5023256;28;20461;-66
2021/01/29 06:50:06;;;;;;;11.00;6.53;;;20.60;76.30;;;;;;5023188;28;20026;-65
2021/01/29 06:53:03;;;;;;;9.63;6.63;;;20.60;76.30;;;;;;5020718;28;20076;-65
2021/01/29 06:55:47;;;;;;;11.23;6.90;;;20.60;76.10;;;;;;5023972;28;20021;-66
2021/01/29 06:58:12;;;;;;;8.65;6.10;;;20.60;76.10;;;;;;5026331;28;20520;-66
2021/01/29 07:01:01;;;;;;;7.07;5.28;;;20.60;78.70;;;;;;5025216;28;20045;-66
2021/01/29 07:04:03;;;;;;;7.40;5.15;;;20.60;79.60;;;;;;5023840;28;20113;-68
2021/01/29 07:07:01;;;;;;;7.17;5.23;;;20.60;80.00;;;;;;5033220;28;20033;-66
2021/01/29 07:10:04;;;;;;;7.22;5.57;;;20.60;80.10;;;;;;5024622;28;20374;-65
2021/01/29 07:12:51;;;;;;;9.75;5.45;;;20.60;79.80;;;;;;5025234;28;20033;-65
2021/01/29 07:15:20;;;;;;;10.38;6.40;;;20.60;79.60;;;;;;5023580;28;20071;-66
2021/01/29 07:18:03;;;;;;;9.63;5.70;;;20.60;79.80;;;;;;5025190;28;20439;-65
2021/01/29 07:21:09;;;;;;;9.02;6.43;;;20.60;79.60;;;;;;5009295;28;20068;-66
2021/01/29 07:23:48;;;;;;;7.93;5.60;;;20.60;79.80;;;;;;5017361;28;20038;-66
2021/01/29 07:26:22;;;;;;;8.50;6.03;;;20.60;79.80;;;;;;5025078;28;20541;-66
2021/01/29 07:29:14;;;;;;;9.00;6.18;;;20.60;79.70;;;;;;5025175;28;20029;-66
2021/01/29 07:32:03;;;;;;;7.97;5.68;;;20.60;79.60;;;;;;5008346;28;20043;-66
2021/01/29 07:34:50;;;;;;;10.45;6.30;;;20.60;79.80;;;;;;5021322;28;20389;-66
2021/01/29 07:37:28;;;;;;;10.70;5.70;;;20.50;79.90;;;;;;5021038;28;20381;-66
2021/01/29 07:40:22;;;;;;;7.32;5.28;;;20.60;79.90;;;;;;5020234;28;20034;-66
2021/01/29 07:43:31;;;;;;;8.07;6.20;;;20.60;79.80;;;;;;5002883;28;20058;-66
2021/01/29 07:46:25;;;;;;;8.38;5.47;;;20.50;79.80;;;;;;4972853;28;20078;-66
2021/01/29 07:49:29;;;;;;;8.85;5.50;;;20.60;79.90;;;;;;5017751;28;20030;-66
2021/01/29 07:52:13;;;;;;;7.55;5.97;;;20.60;79.80;;;;;;5018567;28;20053;-66
2021/01/29 07:54:53;;;;;;;7.63;5.53;;;20.50;79.70;;;;;;5016106;28;20026;-66
2021/01/29 07:57:47;;;;;;;8.55;5.78;;;20.50;79.80;;;;;;5019085;28;20021;-65
2021/01/29 08:00:24;;;;;;;7.78;5.80;;;20.50;80.00;;;;;;5023948;28;20116;-66
2021/01/29 08:03:18;;;;;;;8.57;5.65;;;20.50;79.00;;;;;;5016988;28;20029;-64
2021/01/29 08:06:12;;;;;;;12.73;5.82;;;20.50;79.80;;;;;;5002755;28;20030;-57
2021/01/29 08:08:52;;;;;;;10.85;5.32;;;20.60;80.40;;;;;;5024831;28;20050;-59
2021/01/29 08:11:19;;;;;;;11.55;5.88;;;20.70;79.50;;;;;;5022744;28;20030;-58
2021/01/29 08:14:00;;;;;;;9.57;6.30;;;20.80;79.80;;;;;;5025085;28;20359;-60
2021/01/29 08:17:16;;;;;;;7.65;5.15;;;20.90;78.60;;;;;;5013002;28;20498;-62
2021/01/29 08:20:19;;;;;;;8.48;5.50;;;21.00;78.10;;;;;;4975847;28;20443;-62
2021/01/29 08:23:12;;;;;;;11.90;5.95;;;21.20;77.70;;;;;;5021133;28;20365;-61
2021/01/29 08:25:56;;;;;;;10.27;5.40;;;21.20;77.60;;;;;;5019712;28;20699;-62
2021/01/29 08:28:49;;;;;;;11.35;5.28;;;21.20;77.40;;;;;;5020192;28;20070;-58
2021/01/29 08:31:55;;;;;;;8.00;5.28;;;21.30;77.10;;;;;;5015674;28;20030;-57
2021/01/29 08:34:58;;;;;;;9.13;5.00;;;21.30;76.80;;;;;;5019518;28;20033;-55
2021/01/29 08:37:41;;;;;;;9.27;4.82;;;21.30;76.80;;;;;;5013705;28;20131;-54
2021/01/29 08:40:21;;;;;;;5.78;3.83;;;21.40;76.70;;;;;;5025689;28;20058;-55
2021/01/29 08:42:59;;;;;;;9.43;5.10;;;21.40;76.50;;;;;;5014085;28;20063;-54
2021/01/29 08:45:49;;;;;;;7.28;4.57;;;21.40;76.50;;;;;;5030043;28;20029;-55
2021/01/29 08:48:57;;;;;;;8.38;5.20;;;21.40;76.40;;;;;;5024107;28;20063;-55
2021/01/29 08:51:30;;;;;;;10.27;4.72;;;21.50;76.30;;;;;;5014389;28;20053;-55
2021/01/29 08:53:58;;;;;;;11.95;4.47;;;21.50;76.40;;;;;;5023339;28;20099;-54
2021/01/29 08:56:33;;;;;;;8.63;4.45;;;21.60;76.10;;;;;;5019498;28;20021;-59
2021/01/29 08:59:03;;;;;;;11.07;4.72;;;21.60;75.70;;;;;;5020003;28;20022;-59
2021/01/29 09:01:49;;;;;;;7.05;4.25;;;21.60;75.90;;;;;;5017507;28;20049;-57
2021/01/29 09:04:40;;;;;;;8.02;4.50;;;21.50;76.20;;;;;;4977716;28;20072;-54
2021/01/29 09:07:16;;;;;;;9.40;4.30;;;21.60;76.20;;;;;;5023347;28;20033;-54
2021/01/29 09:09:42;;;;;;;6.80;4.20;;;21.70;75.90;;;;;;5012184;28;20291;-54
2021/01/29 09:12:23;;;;;;;6.57;3.83;;;21.70;75.80;;;;;;5023029;28;20037;-54
2021/01/29 09:14:56;;;;;;;6.93;3.80;;;21.60;75.90;;;;;;5013998;28;20026;-54
2021/01/29 09:17:29;;;;;;;8.63;4.03;;;21.70;75.80;;;;;;5017910;28;20359;-55
2021/01/29 09:20:03;;;;;;;10.15;4.40;;;21.70;75.50;;;;;;5007620;28;20351;-56
2021/01/29 09:22:51;;;;;;;9.00;3.90;;;21.70;75.80;;;;;;5022090;28;20024;-55
2021/01/29 09:25:22;;;;;;;7.97;4.47;;;21.70;75.80;;;;;;5013619;28;20045;-57
2021/01/29 09:28:03;;;;;;;14.50;4.68;;;21.70;75.90;;;;;;5019458;28;20109;-62
2021/01/29 09:30:37;;;;;;;8.45;3.58;;;21.70;75.80;;;;;;5022440;28;20026;-56
2021/01/29 09:33:40;;;;;;;6.70;3.80;;;21.70;75.60;;;;;;5017883;28;20048;-57
2021/01/29 09:36:18;;;;;;;7.90;4.10;;;21.80;75.70;;;;;;5024330;28;20037;-56
2021/01/29 09:39:09;;;;;;;9.57;4.00;;;21.80;75.40;;;;;;5023938;28;20101;-53
2021/01/29 09:41:54;;;;;;;8.68;3.78;;;21.80;75.50;;;;;;5028408;28;20540;-54
2021/01/29 09:44:34;;;;;;;7.43;4.07;;;21.70;75.50;;;;;;5026009;28;20070;-55
2021/01/29 09:47:03;;;;;;;8.95;3.95;;;21.80;75.40;;;;;;5017323;28;20029;-57
2021/01/29 09:49:32;;;;;;;5.28;3.45;;;21.80;75.00;;;;;;5022737;28;20030;-55
2021/01/29 09:52:06;;;;;;;9.63;4.28;;;21.80;75.30;;;;;;5026021;28;20482;-55
2021/01/29 09:54:50;;;;;;;7.97;3.95;;;21.80;74.90;;;;;;5020402;28;20048;-61
2021/01/29 09:57:24;;;;;;;6.75;3.40;;;21.90;75.00;;;;;;5023622;28;20034;-58
2021/01/29 10:00:13;;;;;;;8.23;3.55;;;21.80;75.10;;;;;;5016356;28;20029;-54
2021/01/29 10:02:59;;;;;;;8.38;4.00;;;21.80;73.80;;;;;;5005241;28;20049;-59
2021/01/29 10:05:38;;;;;;;6.57;3.80;;;21.80;74.70;;;;;;5022767;28;20025;-59
2021/01/29 10:08:24;;;;;;;9.00;3.80;;;21.80;75.00;;;;;;5021949;28;20537;-56
2021/01/29 10:11:14;;;;;;;8.27;3.55;;;21.80;75.20;;;;;;5018604;28;20030;-57
2021/01/29 10:13:52;;;;;;;7.95;3.28;;;21.80;75.10;;;;;;5024177;28;20099;-57
2021/01/29 10:16:27;;;;;;;7.78;3.50;;;21.80;75.20;;;;;;5019737;28;20022;-63
2021/01/29 10:19:13;;;;;;;7.20;3.40;;;21.80;75.30;;;;;;5025392;28;20040;-59
2021/01/29 10:21:57;;;;;;;8.63;3.47;;;21.80;75.10;;;;;;5019060;28;20064;-58
2021/01/29 10:24:53;;;;;;;7.70;3.40;;;21.80;75.30;;;;;;5022012;28;20028;-57
2021/01/29 10:27:31;;;;;;;10.35;3.03;;;21.90;75.10;;;;;;4961588;28;20472;-59
2021/01/29 10:30:07;;;;;;;8.75;3.67;;;22.00;74.80;;;;;;5021711;28;20022;-56
2021/01/29 10:32:36;;;;;;;7.65;3.42;;;21.90;74.80;;;;;;5024201;28;20040;-57
2021/01/29 10:35:23;;;;;;;6.70;3.22;;;21.90;75.10;;;;;;5022503;28;20040;-56
2021/01/29 10:38:05;;;;;;;5.60;3.28;;;21.90;75.20;;;;;;5019224;28;20034;-58
2021/01/29 10:40:38;;;;;;;9.20;3.80;;;21.90;75.10;;;;;;5019754;28;20037;-59
2021/01/29 10:43:30;;;;;;;11.30;3.45;;;21.90;75.10;;;;;;5024826;28;20040;-61
2021/01/29 10:45:59;;;;;;;;;;;21.90;75.30;;;;;;5007160;28;20546;-54
2021/01/29 10:48:59;;;;;;;6.10;3.30;;;21.90;75.70;;;;;;5026205;28;19913;-60
2021/01/29 10:51:41;;;;;;;10.40;4.25;;;21.90;75.00;;;;;;5028803;28;20492;-55
2021/01/29 10:54:07;;;;;;;;;;;22.00;74.00;;;;;;5026484;28;20029;-57
2021/01/29 10:57:01;;;;;;;17.13;5.32;;;21.80;73.70;;;;;;5027813;28;19913;-61
2021/01/29 10:59:47;;;;;;;14.90;5.05;;;21.70;74.10;;;;;;5026578;28;20087;-58
2021/01/29 11:02:23;;;;;;;15.93;5.25;;;21.70;73.90;;;;;;5025325;28;20057;-57
2021/01/29 11:04:56;;;;;;;13.77;5.07;;;21.70;73.80;;;;;;5022299;28;20026;-55
2021/01/29 11:07:25;;;;;;;12.63;4.93;;;21.80;73.90;;;;;;5021613;28;20120;-60
2021/01/29 11:10:04;;;;;;;10.82;5.40;;;21.70;74.20;;;;;;5023316;28;20038;-61
2021/01/29 11:12:37;;;;;;;14.45;5.90;;;21.60;74.50;;;;;;5023940;28;20033;-61
2021/01/29 11:15:23;;;;;;;13.80;5.78;;;21.60;74.70;;;;;;5023834;28;20057;-60
2021/01/29 11:17:57;;;;;;;12.20;5.55;;;21.50;74.90;;;;;;5027867;28;20052;-60
2021/01/29 11:20:30;;;;;;;11.13;5.65;;;21.50;75.10;;;;;;5029336;28;20101;-61
2021/01/29 11:23:21;;;;;;;13.65;5.43;;;21.40;75.50;;;;;;5020487;28;20038;-61
2021/01/29 11:26:04;;;;;;;18.00;6.03;;;21.30;75.60;;;;;;4993944;28;20051;-61
2021/01/29 11:28:38;;;;;;;8.63;4.93;;;21.30;75.60;;;;;;5020946;28;20100;-61
2021/01/29 11:31:15;;;;;;;12.98;5.32;;;21.30;76.00;;;;;;5023107;28;20112;-61
2021/01/29 11:33:45;;;;;;;13.20;5.22;;;21.30;76.10;;;;;;5015752;28;20105;-60
2021/01/29 11:36:36;;;;;;;11.65;5.30;;;21.30;76.20;;;;;;5024346;28;20021;-60
2021/01/29 11:39:07;;;;;;;14.50;5.60;;;21.20;76.20;;;;;;5022289;28;20079;-61
2021/01/29 11:41:56;;;;;;;15.52;5.95;;;21.20;76.40;;;;;;5027590;28;20483;-60
2021/01/29 11:44:35;;;;;;;13.15;5.40;;;21.20;76.50;;;;;;5020411;28;20382;-61
2021/01/29 11:47:03;;;;;;;12.30;5.15;;;21.20;76.60;;;;;;5017066;28;20022;-60
2021/01/29 11:49:34;;;;;;;13.38;5.80;;;21.20;76.70;;;;;;5022584;28;20108;-60
2021/01/29 11:52:14;;;;;;;11.88;5.47;;;21.20;76.80;;;;;;5029603;28;20520;-60
2021/01/29 11:54:43;;;;;;;10.77;4.88;;;21.10;76.80;;;;;;5026033;28;20056;-61
2021/01/29 11:57:40;;;;;;;14.43;5.22;;;21.10;76.90;;;;;;5021553;28;20067;-60
2021/01/29 12:00:14;;;;;;;13.77;5.20;;;21.20;76.90;;;;;;4983984;28;20038;-60
2021/01/29 12:02:47;;;;;;;12.45;5.18;;;21.20;76.80;;;;;;5013449;28;20586;-60
2021/01/29 12:05:53;;;;;;;15.55;5.00;;;21.20;77.80;;;;;;5028984;28;20069;-59
2021/01/29 12:08:47;;;;;;;11.65;5.35;;;21.20;76.70;;;;;;5001627;28;20528;-55
2021/01/29 12:11:46;;;;;;;13.00;4.80;;;21.40;76.10;;;;;;5022637;28;20030;-59
2021/01/29 12:14:21;;;;;;;10.75;5.05;;;21.40;76.00;;;;;;4980762;28;20054;-58
2021/01/29 12:17:02;;;;;;;12.85;5.20;;;21.40;76.50;;;;;;5002097;28;20022;-57
2021/01/29 12:19:45;;;;;;;10.10;5.10;;;21.40;76.00;;;;;;5020769;28;20033;-54
2021/01/29 12:22:29;;;;;;;14.30;4.82;;;21.40;75.90;;;;;;5021060;28;20068;-58
2021/01/29 12:25:20;;;;;;;9.65;4.78;;;21.40;75.90;;;;;;5019410;28;20075;-55
2021/01/29 12:28:03;;;;;;;12.77;5.85;;;21.50;76.00;;;;;;5014867;28;20033;-56
2021/01/29 12:30:41;;;;;;;9.20;4.95;;;21.40;75.90;;;;;;5017349;28;20041;-55
2021/01/29 12:33:12;;;;;;;12.38;5.13;;;21.50;76.10;;;;;;5009601;28;20190;-56
2021/01/29 12:36:00;;;;;;;11.63;4.93;;;21.50;76.10;;;;;;5029439;28;20132;-54
2021/01/29 12:38:49;;;;;;;9.77;5.10;;;21.60;75.70;;;;;;5021992;28;20052;-56
2021/01/29 12:41:44;;;;;;;10.20;4.88;;;21.60;75.50;;;;;;5022678;28;20076;-55
2021/01/29 12:44:43;;;;;;;9.73;5.13;;;21.50;75.60;;;;;;5010314;28;20021;-56
2021/01/29 12:47:31;;;;;;;9.85;4.88;;;21.50;75.80;;;;;;5016578;28;20022;-54
2021/01/29 12:49:57;;;;;;;8.43;4.30;;;21.50;75.90;;;;;;5007849;28;20034;-59
2021/01/29 12:52:40;;;;;;;12.30;5.30;;;21.40;76.20;;;;;;5013070;28;20470;-60
2021/01/29 12:55:27;;;;;;;11.05;4.72;;;21.40;76.40;;;;;;5024051;28;20104;-62
2021/01/29 12:58:03;;;;;;;8.80;4.30;;;21.40;77.00;;;;;;5004229;28;20037;-62
2021/01/29 13:00:40;;;;;;;10.50;5.00;;;21.40;76.20;;;;;;5010459;28;20054;-57
2021/01/29 13:03:12;;;;;;;8.25;4.57;;;21.40;76.40;;;;;;5028566;28;20025;-57
2021/01/29 13:06:15;;;;;;;10.63;4.80;;;21.40;76.30;;;;;;5022131;28;20017;-59
2021/01/29 13:09:09;;;;;;;9.52;4.63;;;21.40;76.40;;;;;;5022121;28;20482;-56
2021/01/29 13:11:55;;;;;;;8.40;4.63;;;21.40;76.50;;;;;;5012643;28;20113;-58
2021/01/29 13:14:55;;;;;;;7.10;4.00;;;21.50;76.40;;;;;;5017241;28;20056;-62
2021/01/29 13:18:02;;;;;;;8.90;4.30;;;21.40;76.50;;;;;;5023922;28;20556;-60
2021/01/29 13:20:35;;;;;;;10.63;4.75;;;21.40;76.70;;;;;;4995009;28;20038;-61
2021/01/29 13:23:19;;;;;;;8.43;3.95;;;21.50;76.80;;;;;;5007129;28;20022;-60
2021/01/29 13:26:06;;;;;;;8.68;4.13;;;21.50;76.70;;;;;;5027249;28;20033;-58
2021/01/29 13:28:36;;;;;;;8.30;4.53;;;21.60;76.10;;;;;;5028437;28;20048;-59
2021/01/29 13:31:26;;;;;;;9.82;4.80;;;21.70;76.00;;;;;;5022010;28;20030;-59
2021/01/29 13:33:54;;;;;;;8.68;4.05;;;21.70;75.70;;;;;;5000633;28;20121;-60
2021/01/29 13:36:31;;;;;;;7.07;4.05;;;21.70;75.80;;;;;;5026592;28;20029;-59
2021/01/29 13:39:27;;;;;;;9.25;4.50;;;21.70;75.70;;;;;;5019117;28;20420;-60
2021/01/29 13:41:57;;;;;;;8.10;4.10;;;21.70;75.80;;;;;;5005205;28;20045;-59
2021/01/29 13:44:42;;;;;;;10.23;5.25;;;21.80;75.70;;;;;;5019003;28;20119;-61
2021/01/29 13:47:24;;;;;;;10.35;4.05;;;21.80;75.40;;;;;;5012050;28;20026;-65
2021/01/29 13:49:50;;;;;;;;;;;21.80;75.30;;;;;;5021706;28;20021;-58
2021/01/29 13:52:27;;;;;;;8.77;4.10;;;21.80;75.40;;;;;;5026466;28;19917;-60
2021/01/29 13:54:54;;;;;;;6.60;4.22;;;21.70;75.60;;;;;;5014022;28;20030;-62